sensor_id;sensor_type;location;lat;lon;timestamp;P1;durP1;ratioP1;P2;durP2;ratioP2
33678;SDS011;23143;49.474;11.082;2023-02-03T00:00:30;4.70;;;2.72;;
33678;SDS011;23143;49.474;11.082;2023-02-03T00:01:00;4.43;;;2.95;;
33678;SDS011;23143;49.474;11.082;2023-02-03T00:01:31;7.32;;;2.30;;
33678;SDS011;23143;49.474;11.082;2023-02-03T00:02:02;5.57;;;2.67;;
33678;SDS011;23143;49.474;11.082;2023-02-03T00:02:32;3.80;;;2.33;;
33678;SDS011;23143;49.474;11.082;2023-02-03T00:03:03;4.95;;;2.42;;
33678;SDS011;23143;49.474;11.082;2023-02-03T00:03:34;3.97;;;2.60;;
33678;SDS011;23143;49.474;11.082;2023-02-03T00:04:04;2.58;;;2.30;;
33678;SDS011;23143;49.474;11.082;2023-02-03T00:04:35;3.28;;;2.53;;
33678;SDS011;23143;49.474;11.082;2023-02-03T00:05:06;1.92;;;1.77;;
33678;SDS011;23143;49.474;11.082;2023-02-03T00:05:37;5.90;;;2.70;;
33678;SDS011;23143;49.474;11.082;2023-02-03T00:06:09;3.03;;;2.33;;
33678;SDS011;23143;49.474;11.082;2023-02-03T00:06:39;3.25;;;2.67;;
33678;SDS011;23143;49.474;11.082;2023-02-03T00:07:10;6.38;;;2.72;;
33678;SDS011;23143;49.474;11.082;2023-02-03T00:07:41;3.13;;;2.47;;
33678;SDS011;23143;49.474;11.082;2023-02-03T00:08:13;4.53;;;2.65;;
33678;SDS011;23143;49.474;11.082;2023-02-03T00:08:44;2.42;;;2.22;;
33678;SDS011;23143;49.474;11.082;2023-02-03T00:09:15;8.23;;;2.85;;
33678;SDS011;23143;49.474;11.082;2023-02-03T00:09:46;2.38;;;1.90;;
33678;SDS011;23143;49.474;11.082;2023-02-03T00:10:17;4.47;;;2.60;;
33678;SDS011;23143;49.474;11.082;2023-02-03T00:10:50;4.78;;;1.85;;
33678;SDS011;23143;49.474;11.082;2023-02-03T00:11:21;2.88;;;2.40;;
33678;SDS011;23143;49.474;11.082;2023-02-03T00:11:52;4.85;;;2.40;;
33678;SDS011;23143;49.474;11.082;2023-02-03T00:12:23;4.35;;;2.42;;
33678;SDS011;23143;49.474;11.082;2023-02-03T00:12:54;4.50;;;2.45;;
33678;SDS011;23143;49.474;11.082;2023-02-03T00:13:26;2.40;;;2.03;;
33678;SDS011;23143;49.474;11.082;2023-02-03T00:13:57;2.63;;;2.20;;
33678;SDS011;23143;49.474;11.082;2023-02-03T00:14:28;2.85;;;2.22;;
33678;SDS011;23143;49.474;11.082;2023-02-03T00:14:59;6.43;;;2.40;;
33678;SDS011;23143;49.474;11.082;2023-02-03T00:15:29;4.53;;;2.33;;
33678;SDS011;23143;49.474;11.082;2023-02-03T00:16:00;3.03;;;2.03;;
33678;SDS011;23143;49.474;11.082;2023-02-03T00:16:31;3.28;;;2.30;;
33678;SDS011;23143;49.474;11.082;2023-02-03T00:17:01;4.20;;;2.50;;
33678;SDS011;23143;49.474;11.082;2023-02-03T00:17:32;1.90;;;1.77;;
33678;SDS011;23143;49.474;11.082;2023-02-03T00:18:03;3.20;;;2.55;;
33678;SDS011;23143;49.474;11.082;2023-02-03T00:18:33;3.45;;;2.50;;
33678;SDS011;23143;49.474;11.082;2023-02-03T00:19:04;4.00;;;2.83;;
33678;SDS011;23143;49.474;11.082;2023-02-03T00:19:35;5.38;;;2.83;;
33678;SDS011;23143;49.474;11.082;2023-02-03T00:20:06;3.28;;;2.58;;
33678;SDS011;23143;49.474;11.082;2023-02-03T00:20:37;3.05;;;2.40;;
33678;SDS011;23143;49.474;11.082;2023-02-03T00:21:08;2.40;;;2.15;;
33678;SDS011;23143;49.474;11.082;2023-02-03T00:21:38;4.60;;;2.33;;
33678;SDS011;23143;49.474;11.082;2023-02-03T00:22:09;5.20;;;2.33;;
33678;SDS011;23143;49.474;11.082;2023-02-03T00:22:40;6.90;;;2.60;;
33678;SDS011;23143;49.474;11.082;2023-02-03T00:23:11;3.53;;;2.30;;
33678;SDS011;23143;49.474;11.082;2023-02-03T00:23:41;3.38;;;2.22;;
33678;SDS011;23143;49.474;11.082;2023-02-03T00:24:12;4.65;;;2.28;;
33678;SDS011;23143;49.474;11.082;2023-02-03T00:24:43;3.03;;;2.50;;
33678;SDS011;23143;49.474;11.082;2023-02-03T00:25:13;2.88;;;2.20;;
33678;SDS011;23143;49.474;11.082;2023-02-03T00:25:44;2.50;;;2.25;;
33678;SDS011;23143;49.474;11.082;2023-02-03T00:26:16;6.00;;;2.30;;
33678;SDS011;23143;49.474;11.082;2023-02-03T00:26:47;2.42;;;2.22;;
33678;SDS011;23143;49.474;11.082;2023-02-03T00:27:17;2.40;;;2.20;;
33678;SDS011;23143;49.474;11.082;2023-02-03T00:27:48;2.47;;;2.28;;
33678;SDS011;23143;49.474;11.082;2023-02-03T00:28:19;3.72;;;2.58;;
33678;SDS011;23143;49.474;11.082;2023-02-03T00:28:50;3.83;;;2.58;;
33678;SDS011;23143;49.474;11.082;2023-02-03T00:29:20;5.85;;;2.35;;
33678;SDS011;23143;49.474;11.082;2023-02-03T00:29:54;4.57;;;2.42;;
33678;SDS011;23143;49.474;11.082;2023-02-03T00:30:25;7.38;;;2.50;;
33678;SDS011;23143;49.474;11.082;2023-02-03T00:30:56;3.47;;;2.30;;
33678;SDS011;23143;49.474;11.082;2023-02-03T00:31:26;7.10;;;2.72;;
33678;SDS011;23143;49.474;11.082;2023-02-03T00:31:57;3.25;;;1.92;;
33678;SDS011;23143;49.474;11.082;2023-02-03T00:32:28;4.07;;;2.58;;
33678;SDS011;23143;49.474;11.082;2023-02-03T00:32:59;4.40;;;3.08;;
33678;SDS011;23143;49.474;11.082;2023-02-03T00:33:30;6.60;;;3.10;;
33678;SDS011;23143;49.474;11.082;2023-02-03T00:34:02;4.60;;;2.47;;
33678;SDS011;23143;49.474;11.082;2023-02-03T00:34:33;3.67;;;3.15;;
33678;SDS011;23143;49.474;11.082;2023-02-03T00:35:04;2.70;;;2.50;;
33678;SDS011;23143;49.474;11.082;2023-02-03T00:35:38;2.58;;;2.20;;
33678;SDS011;23143;49.474;11.082;2023-02-03T00:36:09;5.05;;;2.53;;
33678;SDS011;23143;49.474;11.082;2023-02-03T00:36:40;2.88;;;2.42;;
33678;SDS011;23143;49.474;11.082;2023-02-03T00:37:11;2.20;;;1.80;;
33678;SDS011;23143;49.474;11.082;2023-02-03T00:37:42;4.93;;;2.45;;
33678;SDS011;23143;49.474;11.082;2023-02-03T00:38:13;6.93;;;2.90;;
33678;SDS011;23143;49.474;11.082;2023-02-03T00:38:44;2.30;;;2.03;;
33678;SDS011;23143;49.474;11.082;2023-02-03T00:39:15;3.80;;;2.70;;
33678;SDS011;23143;49.474;11.082;2023-02-03T00:39:45;7.15;;;2.78;;
33678;SDS011;23143;49.474;11.082;2023-02-03T00:40:16;3.07;;;2.37;;
33678;SDS011;23143;49.474;11.082;2023-02-03T00:40:50;3.00;;;2.70;;
33678;SDS011;23143;49.474;11.082;2023-02-03T00:41:22;3.88;;;2.67;;
33678;SDS011;23143;49.474;11.082;2023-02-03T00:41:57;5.82;;;2.30;;
33678;SDS011;23143;49.474;11.082;2023-02-03T00:42:28;3.75;;;2.70;;
33678;SDS011;23143;49.474;11.082;2023-02-03T00:42:59;5.50;;;2.53;;
33678;SDS011;23143;49.474;11.082;2023-02-03T00:43:29;2.72;;;2.35;;
33678;SDS011;23143;49.474;11.082;2023-02-03T00:44:00;4.80;;;2.47;;
33678;SDS011;23143;49.474;11.082;2023-02-03T00:44:31;2.85;;;2.45;;
33678;SDS011;23143;49.474;11.082;2023-02-03T00:45:02;5.43;;;2.28;;
33678;SDS011;23143;49.474;11.082;2023-02-03T00:45:32;3.85;;;2.40;;
33678;SDS011;23143;49.474;11.082;2023-02-03T00:46:03;2.80;;;2.08;;
33678;SDS011;23143;49.474;11.082;2023-02-03T00:46:34;6.07;;;2.15;;
33678;SDS011;23143;49.474;11.082;2023-02-03T00:47:05;2.97;;;2.40;;
33678;SDS011;23143;49.474;11.082;2023-02-03T00:47:35;3.63;;;2.53;;
33678;SDS011;23143;49.474;11.082;2023-02-03T00:48:06;3.03;;;2.63;;
33678;SDS011;23143;49.474;11.082;2023-02-03T00:48:37;3.97;;;2.15;;
33678;SDS011;23143;49.474;11.082;2023-02-03T00:49:08;5.20;;;2.50;;
33678;SDS011;23143;49.474;11.082;2023-02-03T00:49:38;3.80;;;2.58;;
33678;SDS011;23143;49.474;11.082;2023-02-03T00:50:09;4.97;;;2.47;;
33678;SDS011;23143;49.474;11.082;2023-02-03T00:50:40;5.65;;;2.85;;
33678;SDS011;23143;49.474;11.082;2023-02-03T00:51:11;4.88;;;2.40;;
33678;SDS011;23143;49.474;11.082;2023-02-03T00:51:41;5.18;;;2.83;;
33678;SDS011;23143;49.474;11.082;2023-02-03T00:52:12;5.72;;;3.17;;
33678;SDS011;23143;49.474;11.082;2023-02-03T00:52:43;3.10;;;2.55;;
33678;SDS011;23143;49.474;11.082;2023-02-03T00:53:14;3.90;;;3.08;;
33678;SDS011;23143;49.474;11.082;2023-02-03T00:53:44;4.05;;;2.72;;
33678;SDS011;23143;49.474;11.082;2023-02-03T00:54:15;3.40;;;2.80;;
33678;SDS011;23143;49.474;11.082;2023-02-03T00:54:46;5.72;;;2.78;;
33678;SDS011;23143;49.474;11.082;2023-02-03T00:55:17;8.70;;;2.78;;
33678;SDS011;23143;49.474;11.082;2023-02-03T00:55:47;3.20;;;2.42;;
33678;SDS011;23143;49.474;11.082;2023-02-03T00:56:18;6.40;;;2.78;;
33678;SDS011;23143;49.474;11.082;2023-02-03T00:56:49;6.88;;;3.10;;
33678;SDS011;23143;49.474;11.082;2023-02-03T00:57:19;5.22;;;3.22;;
33678;SDS011;23143;49.474;11.082;2023-02-03T00:57:50;5.82;;;3.10;;
33678;SDS011;23143;49.474;11.082;2023-02-03T00:58:21;3.10;;;2.35;;
33678;SDS011;23143;49.474;11.082;2023-02-03T00:58:51;3.53;;;2.50;;
33678;SDS011;23143;49.474;11.082;2023-02-03T00:59:22;2.88;;;2.50;;
33678;SDS011;23143;49.474;11.082;2023-02-03T00:59:53;6.45;;;3.42;;
33678;SDS011;23143;49.474;11.082;2023-02-03T01:00:23;6.97;;;2.78;;
33678;SDS011;23143;49.474;11.082;2023-02-03T01:00:54;4.82;;;2.70;;
33678;SDS011;23143;49.474;11.082;2023-02-03T01:01:26;3.60;;;3.00;;
33678;SDS011;23143;49.474;11.082;2023-02-03T01:01:59;7.72;;;3.47;;
33678;SDS011;23143;49.474;11.082;2023-02-03T01:02:30;4.53;;;3.17;;
33678;SDS011;23143;49.474;11.082;2023-02-03T01:03:01;6.65;;;2.97;;
33678;SDS011;23143;49.474;11.082;2023-02-03T01:03:32;4.18;;;2.85;;
33678;SDS011;23143;49.474;11.082;2023-02-03T01:04:03;3.15;;;2.50;;
33678;SDS011;23143;49.474;11.082;2023-02-03T01:04:33;4.03;;;2.45;;
33678;SDS011;23143;49.474;11.082;2023-02-03T01:05:04;3.60;;;2.50;;
33678;SDS011;23143;49.474;11.082;2023-02-03T01:05:36;3.58;;;2.65;;
33678;SDS011;23143;49.474;11.082;2023-02-03T01:06:13;3.75;;;3.05;;
33678;SDS011;23143;49.474;11.082;2023-02-03T01:06:46;7.80;;;2.67;;
33678;SDS011;23143;49.474;11.082;2023-02-03T01:07:16;3.42;;;2.70;;
33678;SDS011;23143;49.474;11.082;2023-02-03T01:07:47;4.38;;;2.53;;
33678;SDS011;23143;49.474;11.082;2023-02-03T01:08:18;8.07;;;4.00;;
33678;SDS011;23143;49.474;11.082;2023-02-03T01:08:48;3.63;;;2.50;;
33678;SDS011;23143;49.474;11.082;2023-02-03T01:09:19;4.68;;;2.95;;
33678;SDS011;23143;49.474;11.082;2023-02-03T01:09:50;4.18;;;2.63;;
33678;SDS011;23143;49.474;11.082;2023-02-03T01:10:20;3.55;;;2.58;;
33678;SDS011;23143;49.474;11.082;2023-02-03T01:10:51;5.95;;;2.58;;
33678;SDS011;23143;49.474;11.082;2023-02-03T01:11:23;3.33;;;2.60;;
33678;SDS011;23143;49.474;11.082;2023-02-03T01:11:56;4.35;;;2.72;;
33678;SDS011;23143;49.474;11.082;2023-02-03T01:12:30;6.93;;;2.67;;
33678;SDS011;23143;49.474;11.082;2023-02-03T01:13:01;2.40;;;2.20;;
33678;SDS011;23143;49.474;11.082;2023-02-03T01:13:32;4.82;;;2.92;;
33678;SDS011;23143;49.474;11.082;2023-02-03T01:14:02;3.60;;;2.70;;
33678;SDS011;23143;49.474;11.082;2023-02-03T01:14:33;4.88;;;3.15;;
33678;SDS011;23143;49.474;11.082;2023-02-03T01:15:04;4.32;;;3.17;;
33678;SDS011;23143;49.474;11.082;2023-02-03T01:15:34;5.32;;;3.05;;
33678;SDS011;23143;49.474;11.082;2023-02-03T01:16:06;3.88;;;3.13;;
33678;SDS011;23143;49.474;11.082;2023-02-03T01:16:38;5.70;;;3.10;;
33678;SDS011;23143;49.474;11.082;2023-02-03T01:17:08;2.88;;;2.60;;
33678;SDS011;23143;49.474;11.082;2023-02-03T01:17:39;5.25;;;3.28;;
33678;SDS011;23143;49.474;11.082;2023-02-03T01:18:10;4.13;;;3.17;;
33678;SDS011;23143;49.474;11.082;2023-02-03T01:18:41;7.25;;;3.10;;
33678;SDS011;23143;49.474;11.082;2023-02-03T01:19:12;4.25;;;2.80;;
33678;SDS011;23143;49.474;11.082;2023-02-03T01:19:43;9.18;;;3.05;;
33678;SDS011;23143;49.474;11.082;2023-02-03T01:20:14;5.00;;;2.65;;
33678;SDS011;23143;49.474;11.082;2023-02-03T01:20:46;4.38;;;2.67;;
33678;SDS011;23143;49.474;11.082;2023-02-03T01:21:18;4.00;;;2.60;;
33678;SDS011;23143;49.474;11.082;2023-02-03T01:21:50;3.88;;;2.85;;
33678;SDS011;23143;49.474;11.082;2023-02-03T01:22:21;3.65;;;2.70;;
33678;SDS011;23143;49.474;11.082;2023-02-03T01:22:51;2.83;;;2.33;;
33678;SDS011;23143;49.474;11.082;2023-02-03T01:23:22;4.30;;;3.08;;
33678;SDS011;23143;49.474;11.082;2023-02-03T01:23:53;4.43;;;2.85;;
33678;SDS011;23143;49.474;11.082;2023-02-03T01:24:23;3.95;;;2.80;;
33678;SDS011;23143;49.474;11.082;2023-02-03T01:24:54;3.03;;;2.40;;
33678;SDS011;23143;49.474;11.082;2023-02-03T01:25:25;5.78;;;2.28;;
33678;SDS011;23143;49.474;11.082;2023-02-03T01:25:55;4.07;;;2.70;;
33678;SDS011;23143;49.474;11.082;2023-02-03T01:26:26;5.35;;;3.15;;
33678;SDS011;23143;49.474;11.082;2023-02-03T01:26:57;5.70;;;2.75;;
33678;SDS011;23143;49.474;11.082;2023-02-03T01:27:27;2.63;;;2.42;;
33678;SDS011;23143;49.474;11.082;2023-02-03T01:27:58;3.83;;;3.20;;
33678;SDS011;23143;49.474;11.082;2023-02-03T01:28:29;5.47;;;2.40;;
33678;SDS011;23143;49.474;11.082;2023-02-03T01:29:00;6.50;;;2.75;;
33678;SDS011;23143;49.474;11.082;2023-02-03T01:29:30;3.78;;;2.90;;
33678;SDS011;23143;49.474;11.082;2023-02-03T01:30:01;7.75;;;3.67;;
33678;SDS011;23143;49.474;11.082;2023-02-03T01:30:32;3.70;;;3.30;;
33678;SDS011;23143;49.474;11.082;2023-02-03T01:31:13;7.28;;;3.53;;
33678;SDS011;23143;49.474;11.082;2023-02-03T01:31:46;4.53;;;2.73;;
33678;SDS011;23143;49.474;11.082;2023-02-03T01:32:16;6.63;;;3.00;;
33678;SDS011;23143;49.474;11.082;2023-02-03T01:32:47;4.60;;;3.22;;
33678;SDS011;23143;49.474;11.082;2023-02-03T01:33:18;3.60;;;2.97;;
33678;SDS011;23143;49.474;11.082;2023-02-03T01:33:49;3.42;;;2.70;;
33678;SDS011;23143;49.474;11.082;2023-02-03T01:34:21;3.38;;;2.25;;
33678;SDS011;23143;49.474;11.082;2023-02-03T01:34:51;9.70;;;3.45;;
33678;SDS011;23143;49.474;11.082;2023-02-03T01:35:22;6.38;;;3.05;;
33678;SDS011;23143;49.474;11.082;2023-02-03T01:35:53;5.63;;;3.42;;
33678;SDS011;23143;49.474;11.082;2023-02-03T01:36:24;4.25;;;3.38;;
33678;SDS011;23143;49.474;11.082;2023-02-03T01:36:55;7.45;;;3.28;;
33678;SDS011;23143;49.474;11.082;2023-02-03T01:37:26;3.47;;;2.47;;
33678;SDS011;23143;49.474;11.082;2023-02-03T01:37:57;4.88;;;3.25;;
33678;SDS011;23143;49.474;11.082;2023-02-03T01:38:28;5.00;;;2.90;;
33678;SDS011;23143;49.474;11.082;2023-02-03T01:38:59;6.30;;;3.40;;
33678;SDS011;23143;49.474;11.082;2023-02-03T01:39:30;6.47;;;3.67;;
33678;SDS011;23143;49.474;11.082;2023-02-03T01:40:01;4.97;;;3.20;;
33678;SDS011;23143;49.474;11.082;2023-02-03T01:40:32;5.50;;;2.85;;
33678;SDS011;23143;49.474;11.082;2023-02-03T01:41:03;3.70;;;3.08;;
33678;SDS011;23143;49.474;11.082;2023-02-03T01:41:36;3.58;;;3.00;;
33678;SDS011;23143;49.474;11.082;2023-02-03T01:42:10;8.18;;;3.65;;
33678;SDS011;23143;49.474;11.082;2023-02-03T01:42:42;5.22;;;2.92;;
33678;SDS011;23143;49.474;11.082;2023-02-03T01:43:27;5.97;;;2.83;;
33678;SDS011;23143;49.474;11.082;2023-02-03T01:44:30;6.13;;;2.53;;
33678;SDS011;23143;49.474;11.082;2023-02-03T01:45:05;8.35;;;3.20;;
33678;SDS011;23143;49.474;11.082;2023-02-03T01:45:36;3.95;;;2.88;;
33678;SDS011;23143;49.474;11.082;2023-02-03T01:46:43;4.47;;;3.00;;
33678;SDS011;23143;49.474;11.082;2023-02-03T01:48:08;3.83;;;2.97;;
33678;SDS011;23143;49.474;11.082;2023-02-03T01:48:17;6.30;;;2.88;;
33678;SDS011;23143;49.474;11.082;2023-02-03T01:48:48;4.70;;;2.45;;
33678;SDS011;23143;49.474;11.082;2023-02-03T01:49:23;5.70;;;3.07;;
33678;SDS011;23143;49.474;11.082;2023-02-03T01:50:05;3.80;;;3.05;;
33678;SDS011;23143;49.474;11.082;2023-02-03T01:50:40;8.63;;;3.75;;
33678;SDS011;23143;49.474;11.082;2023-02-03T01:51:11;4.00;;;3.10;;
33678;SDS011;23143;49.474;11.082;2023-02-03T01:51:41;4.82;;;3.00;;
33678;SDS011;23143;49.474;11.082;2023-02-03T01:52:13;5.47;;;3.77;;
33678;SDS011;23143;49.474;11.082;2023-02-03T01:52:45;4.93;;;3.47;;
33678;SDS011;23143;49.474;11.082;2023-02-03T01:53:18;4.03;;;3.28;;
33678;SDS011;23143;49.474;11.082;2023-02-03T01:53:49;7.60;;;3.95;;
33678;SDS011;23143;49.474;11.082;2023-02-03T01:54:23;5.28;;;4.18;;
33678;SDS011;23143;49.474;11.082;2023-02-03T01:54:56;4.97;;;3.35;;
33678;SDS011;23143;49.474;11.082;2023-02-03T01:55:32;3.63;;;2.93;;
33678;SDS011;23143;49.474;11.082;2023-02-03T01:56:05;3.25;;;2.88;;
33678;SDS011;23143;49.474;11.082;2023-02-03T01:56:38;4.88;;;3.38;;
33678;SDS011;23143;49.474;11.082;2023-02-03T01:57:15;8.77;;;3.53;;
33678;SDS011;23143;49.474;11.082;2023-02-03T01:57:56;7.60;;;3.60;;
33678;SDS011;23143;49.474;11.082;2023-02-03T01:58:34;6.57;;;3.08;;
33678;SDS011;23143;49.474;11.082;2023-02-03T01:59:07;5.93;;;3.53;;
33678;SDS011;23143;49.474;11.082;2023-02-03T01:59:38;9.85;;;3.85;;
33678;SDS011;23143;49.474;11.082;2023-02-03T02:00:09;5.70;;;4.18;;
33678;SDS011;23143;49.474;11.082;2023-02-03T02:00:40;7.03;;;4.30;;
33678;SDS011;23143;49.474;11.082;2023-02-03T02:01:12;5.90;;;3.67;;
33678;SDS011;23143;49.474;11.082;2023-02-03T02:01:43;6.35;;;3.72;;
33678;SDS011;23143;49.474;11.082;2023-02-03T02:02:14;4.78;;;3.80;;
33678;SDS011;23143;49.474;11.082;2023-02-03T02:02:45;6.57;;;3.88;;
33678;SDS011;23143;49.474;11.082;2023-02-03T02:03:25;8.98;;;4.03;;
33678;SDS011;23143;49.474;11.082;2023-02-03T02:04:00;4.25;;;3.30;;
33678;SDS011;23143;49.474;11.082;2023-02-03T02:04:36;6.88;;;3.53;;
33678;SDS011;23143;49.474;11.082;2023-02-03T02:05:21;6.35;;;3.83;;
33678;SDS011;23143;49.474;11.082;2023-02-03T02:06:03;8.00;;;4.30;;
33678;SDS011;23143;49.474;11.082;2023-02-03T02:06:38;4.80;;;3.65;;
33678;SDS011;23143;49.474;11.082;2023-02-03T02:07:08;8.73;;;4.03;;
33678;SDS011;23143;49.474;11.082;2023-02-03T02:07:39;5.90;;;3.95;;
33678;SDS011;23143;49.474;11.082;2023-02-03T02:08:11;6.18;;;3.75;;
33678;SDS011;23143;49.474;11.082;2023-02-03T02:08:43;6.47;;;3.83;;
33678;SDS011;23143;49.474;11.082;2023-02-03T02:09:16;9.00;;;4.60;;
33678;SDS011;23143;49.474;11.082;2023-02-03T02:09:47;5.68;;;3.58;;
33678;SDS011;23143;49.474;11.082;2023-02-03T02:10:18;5.53;;;3.35;;
33678;SDS011;23143;49.474;11.082;2023-02-03T02:10:49;5.90;;;4.33;;
33678;SDS011;23143;49.474;11.082;2023-02-03T02:11:20;11.02;;;4.63;;
33678;SDS011;23143;49.474;11.082;2023-02-03T02:11:50;9.90;;;5.22;;
33678;SDS011;23143;49.474;11.082;2023-02-03T02:12:21;4.05;;;3.42;;
33678;SDS011;23143;49.474;11.082;2023-02-03T02:12:53;8.40;;;4.00;;
33678;SDS011;23143;49.474;11.082;2023-02-03T02:13:30;6.60;;;4.05;;
33678;SDS011;23143;49.474;11.082;2023-02-03T02:14:04;6.78;;;4.22;;
33678;SDS011;23143;49.474;11.082;2023-02-03T02:14:34;4.82;;;3.67;;
33678;SDS011;23143;49.474;11.082;2023-02-03T02:15:05;7.50;;;3.60;;
33678;SDS011;23143;49.474;11.082;2023-02-03T02:22:33;10.50;;;3.40;;
33678;SDS011;23143;49.474;11.082;2023-02-03T02:23:15;13.63;;;4.10;;
33678;SDS011;23143;49.474;11.082;2023-02-03T02:25:01;6.88;;;4.57;;
33678;SDS011;23143;49.474;11.082;2023-02-03T02:31:09;4.13;;;3.08;;
33678;SDS011;23143;49.474;11.082;2023-02-03T02:32:04;7.53;;;3.90;;
33678;SDS011;23143;49.474;11.082;2023-02-03T02:36:32;8.23;;;3.83;;
33678;SDS011;23143;49.474;11.082;2023-02-03T02:39:37;6.38;;;3.90;;
33678;SDS011;23143;49.474;11.082;2023-02-03T02:40:59;8.73;;;4.30;;
33678;SDS011;23143;49.474;11.082;2023-02-03T02:41:51;6.25;;;3.88;;
33678;SDS011;23143;49.474;11.082;2023-02-03T02:42:47;6.38;;;3.88;;
33678;SDS011;23143;49.474;11.082;2023-02-03T02:44:29;8.65;;;4.00;;
33678;SDS011;23143;49.474;11.082;2023-02-03T02:45:13;7.53;;;3.67;;
33678;SDS011;23143;49.474;11.082;2023-02-03T02:45:53;12.20;;;4.23;;
33678;SDS011;23143;49.474;11.082;2023-02-03T02:46:38;7.20;;;3.75;;
33678;SDS011;23143;49.474;11.082;2023-02-03T02:47:16;4.93;;;3.30;;
33678;SDS011;23143;49.474;11.082;2023-02-03T02:47:48;9.95;;;3.58;;
33678;SDS011;23143;49.474;11.082;2023-02-03T02:48:27;6.93;;;3.83;;
33678;SDS011;23143;49.474;11.082;2023-02-03T02:49:38;10.73;;;3.83;;
33678;SDS011;23143;49.474;11.082;2023-02-03T02:50:35;5.07;;;3.23;;
33678;SDS011;23143;49.474;11.082;2023-02-03T02:51:10;9.75;;;4.03;;
33678;SDS011;23143;49.474;11.082;2023-02-03T02:51:42;8.13;;;3.73;;
33678;SDS011;23143;49.474;11.082;2023-02-03T02:52:14;6.82;;;4.15;;
33678;SDS011;23143;49.474;11.082;2023-02-03T02:52:46;6.38;;;3.95;;
33678;SDS011;23143;49.474;11.082;2023-02-03T02:53:19;15.45;;;3.60;;
33678;SDS011;23143;49.474;11.082;2023-02-03T02:53:54;5.25;;;3.95;;
33678;SDS011;23143;49.474;11.082;2023-02-03T02:54:27;5.18;;;3.05;;
33678;SDS011;23143;49.474;11.082;2023-02-03T02:55:03;7.80;;;4.70;;
33678;SDS011;23143;49.474;11.082;2023-02-03T02:55:38;7.35;;;3.88;;
33678;SDS011;23143;49.474;11.082;2023-02-03T02:56:10;8.85;;;3.83;;
33678;SDS011;23143;49.474;11.082;2023-02-03T02:56:42;5.30;;;3.95;;
33678;SDS011;23143;49.474;11.082;2023-02-03T02:57:15;8.57;;;3.80;;
33678;SDS011;23143;49.474;11.082;2023-02-03T02:57:47;8.88;;;4.10;;
33678;SDS011;23143;49.474;11.082;2023-02-03T02:58:18;5.30;;;3.53;;
33678;SDS011;23143;49.474;11.082;2023-02-03T02:58:50;6.15;;;3.95;;
33678;SDS011;23143;49.474;11.082;2023-02-03T02:59:21;10.07;;;4.07;;
33678;SDS011;23143;49.474;11.082;2023-02-03T02:59:52;9.00;;;4.72;;
33678;SDS011;23143;49.474;11.082;2023-02-03T03:00:23;11.00;;;4.38;;
33678;SDS011;23143;49.474;11.082;2023-02-03T03:00:54;4.85;;;3.78;;
33678;SDS011;23143;49.474;11.082;2023-02-03T03:01:25;9.70;;;4.20;;
33678;SDS011;23143;49.474;11.082;2023-02-03T03:01:55;6.55;;;3.42;;
33678;SDS011;23143;49.474;11.082;2023-02-03T03:02:32;7.28;;;3.50;;
33678;SDS011;23143;49.474;11.082;2023-02-03T03:03:17;4.28;;;3.30;;
33678;SDS011;23143;49.474;11.082;2023-02-03T03:03:50;7.90;;;3.35;;
33678;SDS011;23143;49.474;11.082;2023-02-03T03:04:23;6.97;;;3.67;;
33678;SDS011;23143;49.474;11.082;2023-02-03T03:04:55;8.50;;;3.47;;
33678;SDS011;23143;49.474;11.082;2023-02-03T03:05:26;6.93;;;4.15;;
33678;SDS011;23143;49.474;11.082;2023-02-03T03:06:40;5.10;;;3.50;;
33678;SDS011;23143;49.474;11.082;2023-02-03T03:07:03;7.60;;;3.53;;
33678;SDS011;23143;49.474;11.082;2023-02-03T03:07:57;5.35;;;3.15;;
33678;SDS011;23143;49.474;11.082;2023-02-03T03:08:33;5.05;;;3.50;;
33678;SDS011;23143;49.474;11.082;2023-02-03T03:09:17;4.75;;;2.90;;
33678;SDS011;23143;49.474;11.082;2023-02-03T03:09:55;8.75;;;4.00;;
33678;SDS011;23143;49.474;11.082;2023-02-03T03:10:33;8.13;;;3.80;;
33678;SDS011;23143;49.474;11.082;2023-02-03T03:11:04;6.72;;;3.13;;
33678;SDS011;23143;49.474;11.082;2023-02-03T03:11:38;6.47;;;3.50;;
33678;SDS011;23143;49.474;11.082;2023-02-03T03:12:25;5.65;;;3.42;;
33678;SDS011;23143;49.474;11.082;2023-02-03T03:13:04;6.05;;;3.40;;
33678;SDS011;23143;49.474;11.082;2023-02-03T03:13:43;5.85;;;3.28;;
33678;SDS011;23143;49.474;11.082;2023-02-03T03:14:18;6.53;;;3.58;;
33678;SDS011;23143;49.474;11.082;2023-02-03T03:14:50;6.43;;;3.42;;
33678;SDS011;23143;49.474;11.082;2023-02-03T03:15:24;6.90;;;3.72;;
33678;SDS011;23143;49.474;11.082;2023-02-03T03:15:57;5.78;;;3.35;;
33678;SDS011;23143;49.474;11.082;2023-02-03T03:16:29;8.40;;;3.78;;
33678;SDS011;23143;49.474;11.082;2023-02-03T03:17:03;5.35;;;3.42;;
33678;SDS011;23143;49.474;11.082;2023-02-03T03:17:47;5.63;;;3.95;;
33678;SDS011;23143;49.474;11.082;2023-02-03T03:18:30;6.05;;;3.88;;
33678;SDS011;23143;49.474;11.082;2023-02-03T03:19:05;4.60;;;3.10;;
33678;SDS011;23143;49.474;11.082;2023-02-03T03:19:42;6.72;;;3.47;;
33678;SDS011;23143;49.474;11.082;2023-02-03T03:20:18;6.68;;;3.22;;
33678;SDS011;23143;49.474;11.082;2023-02-03T03:20:52;5.03;;;2.97;;
33678;SDS011;23143;49.474;11.082;2023-02-03T03:21:26;5.70;;;3.70;;
33678;SDS011;23143;49.474;11.082;2023-02-03T03:22:00;7.65;;;4.28;;
33678;SDS011;23143;49.474;11.082;2023-02-03T03:22:34;4.97;;;3.30;;
33678;SDS011;23143;49.474;11.082;2023-02-03T03:23:09;4.78;;;3.35;;
33678;SDS011;23143;49.474;11.082;2023-02-03T03:23:44;4.65;;;2.95;;
33678;SDS011;23143;49.474;11.082;2023-02-03T03:24:19;5.15;;;3.55;;
33678;SDS011;23143;49.474;11.082;2023-02-03T03:24:54;3.28;;;2.30;;
33678;SDS011;23143;49.474;11.082;2023-02-03T03:25:38;3.67;;;2.83;;
33678;SDS011;23143;49.474;11.082;2023-02-03T03:26:29;7.88;;;3.65;;
33678;SDS011;23143;49.474;11.082;2023-02-03T03:27:17;6.77;;;3.27;;
33678;SDS011;23143;49.474;11.082;2023-02-03T03:27:53;5.63;;;3.10;;
33678;SDS011;23143;49.474;11.082;2023-02-03T03:28:35;4.15;;;2.90;;
33678;SDS011;23143;49.474;11.082;2023-02-03T03:29:17;4.97;;;2.63;;
33678;SDS011;23143;49.474;11.082;2023-02-03T03:29:59;7.50;;;3.08;;
33678;SDS011;23143;49.474;11.082;2023-02-03T03:30:41;3.33;;;2.65;;
33678;SDS011;23143;49.474;11.082;2023-02-03T03:31:11;8.40;;;3.08;;
33678;SDS011;23143;49.474;11.082;2023-02-03T03:31:42;4.35;;;2.92;;
33678;SDS011;23143;49.474;11.082;2023-02-03T03:32:13;8.40;;;3.80;;
33678;SDS011;23143;49.474;11.082;2023-02-03T03:32:44;7.53;;;2.80;;
33678;SDS011;23143;49.474;11.082;2023-02-03T03:33:15;4.50;;;2.75;;
33678;SDS011;23143;49.474;11.082;2023-02-03T03:33:46;5.82;;;3.58;;
33678;SDS011;23143;49.474;11.082;2023-02-03T03:34:17;11.73;;;3.40;;
33678;SDS011;23143;49.474;11.082;2023-02-03T03:34:48;7.05;;;3.05;;
33678;SDS011;23143;49.474;11.082;2023-02-03T03:35:20;3.90;;;2.78;;
33678;SDS011;23143;49.474;11.082;2023-02-03T03:35:59;4.00;;;2.90;;
33678;SDS011;23143;49.474;11.082;2023-02-03T03:36:49;7.50;;;3.08;;
33678;SDS011;23143;49.474;11.082;2023-02-03T03:37:38;3.85;;;2.42;;
33678;SDS011;23143;49.474;11.082;2023-02-03T03:38:17;4.68;;;2.90;;
33678;SDS011;23143;49.474;11.082;2023-02-03T03:38:55;5.88;;;2.38;;
33678;SDS011;23143;49.474;11.082;2023-02-03T03:40:35;3.38;;;2.13;;
33678;SDS011;23143;49.474;11.082;2023-02-03T03:41:13;4.97;;;2.55;;
33678;SDS011;23143;49.474;11.082;2023-02-03T03:42:10;6.70;;;2.45;;
33678;SDS011;23143;49.474;11.082;2023-02-03T03:42:58;4.00;;;2.60;;